createdAt,value
2022-07-26T00:01:49.870Z,18.74
2022-07-26T00:04:22.386Z,18.70
2022-07-26T00:06:55.135Z,18.73
2022-07-26T00:09:27.544Z,18.74
2022-07-26T00:12:00.655Z,18.71
2022-07-26T00:14:33.077Z,18.76
2022-07-26T00:17:05.856Z,18.76
2022-07-26T00:19:38.224Z,18.67
2022-07-26T00:22:29.018Z,18.53
2022-07-26T00:25:02.669Z,18.37
2022-07-26T00:27:36.579Z,18.46
2022-07-26T00:30:10.758Z,18.55
2022-07-26T00:32:43.163Z,18.46
2022-07-26T00:35:15.748Z,18.46
2022-07-26T00:37:48.390Z,18.33
2022-07-26T00:40:20.818Z,18.43
2022-07-26T00:42:53.971Z,18.34
2022-07-26T00:45:26.372Z,18.30
2022-07-26T00:47:58.864Z,18.27
2022-07-26T00:50:31.291Z,18.29
2022-07-26T00:53:03.729Z,18.35
2022-07-26T00:55:36.158Z,18.37
2022-07-26T00:58:09.239Z,18.43
2022-07-26T01:00:41.619Z,18.43
2022-07-26T01:03:14.087Z,18.36
2022-07-26T01:05:47.616Z,18.35
2022-07-26T01:08:20.336Z,18.40
2022-07-26T01:10:53.027Z,18.42
2022-07-26T01:13:26.184Z,18.30
2022-07-26T01:15:58.591Z,18.15
2022-07-26T01:18:31.099Z,17.81
2022-07-26T01:21:13.688Z,17.92
2022-07-26T01:23:47.575Z,17.83
2022-07-26T01:26:20.098Z,17.94
2022-07-26T01:28:52.946Z,17.76
2022-07-26T01:31:26.055Z,17.80
2022-07-26T01:33:58.541Z,17.88
2022-07-26T01:36:30.948Z,18.00
2022-07-26T01:39:04.379Z,17.78
2022-07-26T01:41:38.024Z,17.78
2022-07-26T01:44:11.319Z,17.91
2022-07-26T01:46:44.030Z,17.83
2022-07-26T01:49:16.575Z,17.86
2022-07-26T01:51:48.991Z,17.92
2022-07-26T01:54:22.555Z,17.90
2022-07-26T01:56:56.991Z,17.88
2022-07-26T01:59:29.370Z,17.76
2022-07-26T02:02:05.654Z,17.77
2022-07-26T02:04:56.295Z,17.79
2022-07-26T02:07:30.409Z,17.73
2022-07-26T02:10:07.401Z,17.67
2022-07-26T02:12:40.224Z,17.47
2022-07-26T02:15:14.114Z,17.17
2022-07-26T02:17:46.487Z,17.29
2022-07-26T02:20:18.874Z,17.42
2022-07-26T02:22:51.266Z,17.35
2022-07-26T02:25:24.603Z,17.40
2022-07-26T02:27:57.012Z,17.26
2022-07-26T02:30:29.469Z,17.24
2022-07-26T02:33:01.979Z,17.31
2022-07-26T02:35:34.539Z,17.13
2022-07-26T02:38:09.025Z,17.01
2022-07-26T02:40:43.832Z,16.83
2022-07-26T02:43:16.417Z,16.83
2022-07-26T02:46:01.636Z,17.01
2022-07-26T02:48:34.729Z,16.92
2022-07-26T02:51:07.875Z,16.89
2022-07-26T02:53:40.259Z,17.03
2022-07-26T02:56:13.319Z,17.13
2022-07-26T02:58:45.962Z,17.08
2022-07-26T03:01:18.459Z,16.83
2022-07-26T03:03:51.388Z,16.72
2022-07-26T03:06:23.907Z,16.93
2022-07-26T03:08:56.474Z,17.01
2022-07-26T03:11:29.544Z,17.01
2022-07-26T03:14:02.171Z,17.04
2022-07-26T03:16:34.878Z,16.92
2022-07-26T03:19:07.262Z,16.92
2022-07-26T03:21:39.675Z,16.89
2022-07-26T03:24:12.170Z,16.77
2022-07-26T03:26:45.166Z,16.72
2022-07-26T03:29:17.674Z,16.85
2022-07-26T03:31:50.048Z,16.90
2022-07-26T03:34:22.876Z,16.69
2022-07-26T03:36:55.348Z,16.79
2022-07-26T03:39:27.744Z,16.86
2022-07-26T03:42:00.751Z,16.82
2022-07-26T03:44:33.283Z,16.83
2022-07-26T03:47:05.864Z,16.86
2022-07-26T03:49:38.346Z,16.91
2022-07-26T03:52:10.708Z,16.83
2022-07-26T03:54:43.136Z,16.87
2022-07-26T03:57:15.930Z,16.79
2022-07-26T03:59:48.351Z,16.87
2022-07-26T04:02:20.810Z,16.68
2022-07-26T04:04:53.213Z,16.74
2022-07-26T04:07:27.066Z,16.63
2022-07-26T04:09:59.550Z,16.80
2022-07-26T04:12:32.546Z,16.86
2022-07-26T04:15:06.324Z,16.86
2022-07-26T04:17:40.058Z,16.92
2022-07-26T04:20:12.522Z,16.92
2022-07-26T04:22:44.998Z,16.84
2022-07-26T04:25:18.144Z,16.82
2022-07-26T04:27:51.203Z,16.87
2022-07-26T04:30:23.670Z,16.82
2022-07-26T04:32:56.084Z,16.94
2022-07-26T04:35:28.530Z,17.04
2022-07-26T04:38:01.328Z,17.18
2022-07-26T04:40:33.782Z,17.24
2022-07-26T04:43:06.905Z,17.20
2022-07-26T04:45:41.802Z,17.26
2022-07-26T04:48:16.191Z,17.38
2022-07-26T04:50:48.650Z,17.48
2022-07-26T04:53:21.070Z,17.52
2022-07-26T04:55:53.483Z,17.51
2022-07-26T04:58:26.620Z,17.69
2022-07-26T05:01:14.669Z,17.86
2022-07-26T05:03:47.130Z,17.83
2022-07-26T05:06:19.542Z,17.98
2022-07-26T05:08:51.886Z,18.13
2022-07-26T05:11:24.664Z,18.30
2022-07-26T05:13:57.808Z,18.44
2022-07-26T05:16:30.402Z,18.56
2022-07-26T05:19:03.812Z,18.70
2022-07-26T05:21:36.219Z,18.84
2022-07-26T05:24:09.315Z,18.95
2022-07-26T05:26:42.079Z,19.17
2022-07-26T05:29:15.233Z,19.31
2022-07-26T05:31:47.639Z,19.50
2022-07-26T05:34:20.017Z,19.67
2022-07-26T05:36:52.481Z,19.87
2022-07-26T05:39:24.889Z,20.06
2022-07-26T05:41:57.316Z,20.22
2022-07-26T05:44:45.523Z,20.46
2022-07-26T05:47:18.762Z,20.64
2022-07-26T05:49:51.174Z,20.84
2022-07-26T05:52:23.793Z,21.05
2022-07-26T05:54:56.196Z,21.28
2022-07-26T05:57:28.654Z,21.50
2022-07-26T06:00:01.846Z,21.77
2022-07-26T06:02:44.532Z,21.97
2022-07-26T06:05:17.061Z,22.24
2022-07-26T06:07:49.627Z,22.46
2022-07-26T06:10:22.004Z,22.70
2022-07-26T06:12:54.392Z,22.95
2022-07-26T06:15:27.407Z,23.22
2022-07-26T06:17:59.785Z,23.44
2022-07-26T06:20:32.274Z,23.63
2022-07-26T06:23:04.884Z,23.72
2022-07-26T06:25:37.662Z,23.94
2022-07-26T06:28:10.877Z,24.17
2022-07-26T06:30:45.019Z,24.36
2022-07-26T06:33:17.449Z,24.21
2022-07-26T06:35:49.865Z,24.35
2022-07-26T06:38:22.308Z,24.58
2022-07-26T06:40:54.699Z,24.70
2022-07-26T06:43:27.159Z,24.87
2022-07-26T06:46:00.259Z,25.02
2022-07-26T06:48:32.909Z,25.17
2022-07-26T06:51:09.488Z,25.22
2022-07-26T06:53:41.930Z,25.45
2022-07-26T06:56:16.457Z,25.72
2022-07-26T06:58:48.891Z,25.94
2022-07-26T07:01:58.721Z,26.18
2022-07-26T07:04:14.548Z,26.43
2022-07-26T07:06:46.928Z,26.65
2022-07-26T07:09:22.335Z,26.82
2022-07-26T07:12:00.349Z,26.94
2022-07-26T07:14:38.429Z,27.06
2022-07-26T07:17:15.011Z,27.23
2022-07-26T07:19:50.915Z,27.38
2022-07-26T07:22:23.397Z,27.49
2022-07-26T07:24:55.846Z,27.69
2022-07-26T07:27:28.226Z,27.64
2022-07-26T07:30:00.585Z,27.69
2022-07-26T07:32:33.897Z,27.93
2022-07-26T07:35:12.828Z,28.30
2022-07-26T07:37:52.740Z,28.31
2022-07-26T07:40:26.612Z,28.11
2022-07-26T07:42:59.056Z,28.36
2022-07-26T07:45:31.449Z,28.65
2022-07-26T07:48:05.135Z,28.50
2022-07-26T07:50:37.529Z,28.60
2022-07-26T07:53:10.163Z,28.52
2022-07-26T07:55:46.340Z,28.80
2022-07-26T07:58:20.334Z,28.59
2022-07-26T08:00:52.917Z,28.70
2022-07-26T08:03:38.544Z,29.04
2022-07-26T08:06:11.516Z,29.04
2022-07-26T08:08:44.234Z,29.23
2022-07-26T08:11:16.635Z,29.45
2022-07-26T08:13:49.067Z,29.23
2022-07-26T08:16:21.503Z,29.20
2022-07-26T08:18:57.911Z,29.39
2022-07-26T08:21:30.723Z,29.63
2022-07-26T08:24:03.819Z,30.05
2022-07-26T08:26:36.161Z,30.30
2022-07-26T08:29:08.562Z,30.36
2022-07-26T08:31:40.984Z,30.44
2022-07-26T08:34:14.523Z,30.64
2022-07-26T08:37:14.280Z,30.55
2022-07-26T08:39:39.714Z,30.48
2022-07-26T08:42:15.779Z,30.90
2022-07-26T08:44:49.307Z,31.03
2022-07-26T08:47:40.036Z,30.92
2022-07-26T08:50:15.542Z,31.06
2022-07-26T08:52:49.072Z,31.00
2022-07-26T08:55:21.557Z,31.12
2022-07-26T08:57:53.948Z,31.40
2022-07-26T09:00:29.083Z,31.41
2022-07-26T09:03:02.462Z,31.11
2022-07-26T09:05:39.148Z,30.65
2022-07-26T09:08:24.442Z,30.90
2022-07-26T09:10:56.985Z,31.23
2022-07-26T09:13:49.615Z,31.80
2022-07-26T09:16:22.202Z,32.28
2022-07-26T09:18:55.776Z,32.52
2022-07-26T09:21:29.958Z,32.70
2022-07-26T09:24:02.672Z,32.50
2022-07-26T09:26:35.075Z,32.04
2022-07-26T09:29:10.941Z,32.12
2022-07-26T09:31:43.884Z,32.09
2022-07-26T09:34:24.989Z,32.51
2022-07-26T09:36:58.028Z,32.37
2022-07-26T09:39:34.022Z,32.90
2022-07-26T09:42:26.815Z,32.47
2022-07-26T09:45:01.402Z,32.66
2022-07-26T09:47:37.708Z,32.33
2022-07-26T09:50:12.849Z,32.48
2022-07-26T09:52:59.508Z,32.61
2022-07-26T09:55:40.992Z,33.10
2022-07-26T09:58:18.349Z,33.36
2022-07-26T10:00:50.960Z,33.56
2022-07-26T10:03:23.349Z,33.69
2022-07-26T10:05:57.117Z,34.08
2022-07-26T10:08:31.281Z,34.10
2022-07-26T10:11:07.022Z,34.42
2022-07-26T10:13:39.415Z,33.47
2022-07-26T10:16:30.129Z,34.05
2022-07-26T10:19:04.851Z,34.21
2022-07-26T10:21:37.396Z,34.45
2022-07-26T10:24:24.742Z,34.58
2022-07-26T10:26:57.151Z,34.70
2022-07-26T10:29:29.638Z,34.80
2022-07-26T10:32:19.482Z,34.84
2022-07-26T10:34:52.001Z,34.63
2022-07-26T10:37:29.040Z,34.75
2022-07-26T10:40:20.396Z,34.66
2022-07-26T10:42:52.820Z,34.90
2022-07-26T10:45:25.268Z,34.88
2022-07-26T10:48:14.571Z,35.15
2022-07-26T10:50:48.615Z,34.89
2022-07-26T10:53:23.057Z,35.16
2022-07-26T10:55:57.869Z,35.50
2022-07-26T10:58:42.168Z,34.72
2022-07-26T11:01:14.565Z,35.07
2022-07-26T11:03:47.215Z,35.12
2022-07-26T11:06:19.880Z,34.53
2022-07-26T11:08:52.432Z,34.83
2022-07-26T11:11:30.763Z,35.08
2022-07-26T11:14:07.684Z,34.42
2022-07-26T11:16:41.731Z,34.24
2022-07-26T11:19:16.016Z,34.08
2022-07-26T11:21:53.970Z,34.40
2022-07-26T11:24:26.908Z,34.74
2022-07-26T11:27:04.387Z,34.79
2022-07-26T11:29:41.199Z,35.15
2022-07-26T11:32:18.687Z,34.94
2022-07-26T11:35:00.221Z,34.55
2022-07-26T11:37:32.695Z,34.52
2022-07-26T11:40:06.165Z,34.61
2022-07-26T11:42:39.308Z,34.85
2022-07-26T11:45:14.755Z,34.97
2022-07-26T11:47:47.150Z,35.52
2022-07-26T11:50:23.045Z,35.46
2022-07-26T11:52:55.930Z,35.07
2022-07-26T11:55:29.557Z,35.45
2022-07-26T11:58:05.953Z,35.64
2022-07-26T12:00:38.446Z,35.95
2022-07-26T12:03:10.903Z,36.04
2022-07-26T12:05:43.508Z,36.20
2022-07-26T12:08:16.060Z,36.28
2022-07-26T12:10:53.757Z,35.72
2022-07-26T12:13:26.824Z,36.19
2022-07-26T12:15:59.363Z,36.38
2022-07-26T12:18:33.369Z,36.17
2022-07-26T12:21:08.613Z,36.21
2022-07-26T12:23:43.547Z,35.99
2022-07-26T12:26:23.728Z,36.26
2022-07-26T12:28:59.095Z,36.28
2022-07-26T12:31:33.405Z,36.22
2022-07-26T12:34:06.740Z,36.08
2022-07-26T12:36:39.131Z,36.10
2022-07-26T12:39:19.281Z,35.28
2022-07-26T12:41:53.388Z,34.92
2022-07-26T12:44:26.444Z,34.83
2022-07-26T12:46:58.817Z,35.40
2022-07-26T12:49:31.276Z,35.41
2022-07-26T12:55:41.145Z,35.27
2022-07-26T12:58:13.571Z,35.24
2022-07-26T13:00:46.661Z,35.05
2022-07-26T13:03:19.063Z,35.03
2022-07-26T13:05:51.532Z,35.11
2022-07-26T13:08:23.971Z,34.50
2022-07-26T13:10:59.985Z,34.68
2022-07-26T13:13:32.648Z,34.25
2022-07-26T13:16:11.575Z,34.33
2022-07-26T13:18:44.580Z,34.25
2022-07-26T13:21:17.083Z,33.56
2022-07-26T13:23:49.539Z,33.49
2022-07-26T13:26:21.942Z,33.46
2022-07-26T13:28:54.916Z,33.66
2022-07-26T13:31:28.182Z,33.53
2022-07-26T13:34:00.650Z,32.95
2022-07-26T13:36:33.392Z,33.26
2022-07-26T13:39:06.095Z,33.34
2022-07-26T13:41:38.573Z,33.01
2022-07-26T13:44:11.380Z,33.21
2022-07-26T13:46:46.683Z,33.06
2022-07-26T13:49:19.202Z,33.14
2022-07-26T13:51:57.489Z,33.18
2022-07-26T13:54:31.711Z,33.21
2022-07-26T13:57:07.086Z,33.33
2022-07-26T13:59:39.504Z,33.37
2022-07-26T14:02:12.817Z,33.16
2022-07-26T14:04:45.341Z,33.16
2022-07-26T14:07:17.767Z,33.24
2022-07-26T14:09:50.153Z,33.24
2022-07-26T14:12:22.620Z,33.28
2022-07-26T14:14:55.037Z,33.26
2022-07-26T14:17:28.124Z,33.23
2022-07-26T14:20:00.664Z,33.05
2022-07-26T14:22:33.067Z,33.10
2022-07-26T14:25:06.889Z,33.05
2022-07-26T14:27:39.296Z,33.07
2022-07-26T14:30:13.012Z,32.86
2022-07-26T14:32:46.688Z,32.72
2022-07-26T14:35:19.103Z,32.78
2022-07-26T14:37:52.099Z,32.87
2022-07-26T14:40:24.695Z,32.88
2022-07-26T14:42:57.496Z,32.76
2022-07-26T14:45:30.396Z,32.80
2022-07-26T14:48:03.983Z,32.91
2022-07-26T14:50:59.763Z,32.97
2022-07-26T14:53:28.844Z,32.99
2022-07-26T14:56:01.242Z,32.92
2022-07-26T14:58:33.672Z,32.88
2022-07-26T15:01:06.127Z,32.83
2022-07-26T15:03:39.933Z,32.79
2022-07-26T15:06:12.481Z,32.79
2022-07-26T15:08:44.871Z,32.86
2022-07-26T15:11:17.290Z,32.86
2022-07-26T15:13:49.795Z,32.83
2022-07-26T15:16:22.291Z,32.72
2022-07-26T15:18:55.388Z,32.75
2022-07-26T15:21:27.782Z,32.64
2022-07-26T15:24:00.940Z,32.60
2022-07-26T15:26:33.383Z,32.46
2022-07-26T15:29:05.873Z,32.48
2022-07-26T15:31:38.432Z,32.54
2022-07-26T15:34:11.914Z,32.53
2022-07-26T15:36:44.700Z,32.55
2022-07-26T15:39:18.069Z,32.55
2022-07-26T15:41:51.264Z,32.44
2022-07-26T15:44:25.772Z,32.43
2022-07-26T15:46:58.327Z,32.28
2022-07-26T15:49:31.631Z,32.14
2022-07-26T15:52:05.055Z,32.14
2022-07-26T15:54:37.693Z,32.05
2022-07-26T15:57:10.059Z,31.98
2022-07-26T15:59:42.480Z,31.92
2022-07-26T16:02:15.326Z,31.74
2022-07-26T16:04:48.501Z,31.64
2022-07-26T16:07:21.005Z,31.57
2022-07-26T16:09:53.464Z,31.56
2022-07-26T16:12:25.904Z,31.52
2022-07-26T16:14:58.299Z,31.46
2022-07-26T16:17:30.691Z,31.41
2022-07-26T16:20:06.176Z,31.34
2022-07-26T16:22:41.347Z,31.22
2022-07-26T16:25:15.383Z,31.11
2022-07-26T16:27:47.882Z,31.01
2022-07-26T16:30:20.831Z,30.85
2022-07-26T16:32:53.229Z,30.87
2022-07-26T16:35:26.341Z,30.71
2022-07-26T16:37:59.231Z,30.66
2022-07-26T16:40:31.679Z,30.61
2022-07-26T16:43:08.965Z,30.44
2022-07-26T16:45:44.503Z,30.39
2022-07-26T16:48:16.823Z,30.39
2022-07-26T16:50:49.926Z,30.30
2022-07-26T16:53:22.333Z,30.25
2022-07-26T16:55:54.717Z,30.14
2022-07-26T16:58:27.110Z,30.02
2022-07-26T17:00:59.604Z,29.92
2022-07-26T17:03:31.987Z,29.90
2022-07-26T17:06:06.864Z,29.84
2022-07-26T17:08:40.323Z,29.74
2022-07-26T17:11:12.773Z,29.65
2022-07-26T17:13:45.179Z,29.50
2022-07-26T17:16:21.477Z,29.39
2022-07-26T17:18:57.347Z,29.23
2022-07-26T17:21:30.388Z,29.15
2022-07-26T17:24:05.641Z,29.16
2022-07-26T17:26:38.239Z,29.07
2022-07-26T17:29:12.855Z,29.03
2022-07-26T17:31:45.639Z,28.89
2022-07-26T17:34:18.044Z,28.80
2022-07-26T17:36:58.220Z,28.72
2022-07-26T17:39:52.718Z,28.62
2022-07-26T17:42:24.214Z,28.45
2022-07-26T17:44:56.913Z,28.38
2022-07-26T17:47:30.552Z,28.30
2022-07-26T17:52:58.816Z,28.07
2022-07-26T17:55:31.199Z,27.87
2022-07-26T17:58:03.515Z,27.78
2022-07-26T18:00:36.089Z,27.68
2022-07-26T18:03:08.419Z,27.60
2022-07-26T18:05:41.540Z,27.52
2022-07-26T18:08:14.831Z,27.43
2022-07-26T18:10:51.022Z,27.33
2022-07-26T18:13:24.515Z,27.20
2022-07-26T18:15:57.306Z,27.00
2022-07-26T18:18:29.820Z,26.98
2022-07-26T18:21:02.190Z,26.92
2022-07-26T18:23:35.243Z,26.84
2022-07-26T18:26:07.679Z,26.71
2022-07-26T18:28:40.700Z,26.64
2022-07-26T18:31:15.764Z,26.56
2022-07-26T18:33:48.292Z,26.40
2022-07-26T18:36:20.663Z,26.30
2022-07-26T18:38:53.711Z,26.23
2022-07-26T18:41:27.861Z,26.13
2022-07-26T18:44:00.269Z,25.98
2022-07-26T18:46:33.680Z,25.79
2022-07-26T18:49:07.049Z,25.71
2022-07-26T18:51:40.304Z,25.66
2022-07-26T18:54:13.416Z,25.49
2022-07-26T18:56:45.785Z,25.41
2022-07-26T18:59:18.142Z,25.34
2022-07-26T19:01:50.592Z,25.15
2022-07-26T19:04:23.113Z,25.07
2022-07-26T19:06:56.054Z,25.02
2022-07-26T19:09:29.119Z,25.01
2022-07-26T19:12:01.492Z,24.97
2022-07-26T19:14:33.924Z,24.78
2022-07-26T19:17:09.238Z,24.79
2022-07-26T19:19:42.250Z,24.61
2022-07-26T19:22:14.643Z,24.65
2022-07-26T19:24:47.927Z,24.48
2022-07-26T19:27:20.331Z,24.21
2022-07-26T19:29:52.728Z,24.14
2022-07-26T19:32:27.194Z,23.85
2022-07-26T19:35:03.611Z,23.76
2022-07-26T19:37:36.295Z,23.76
2022-07-26T19:40:10.536Z,23.78
2022-07-26T19:42:43.077Z,23.90
2022-07-26T19:45:15.576Z,23.84
2022-07-26T19:47:48.000Z,23.65
2022-07-26T19:50:20.470Z,23.46
2022-07-26T19:52:52.942Z,23.52
2022-07-26T19:55:26.017Z,23.59
2022-07-26T19:57:58.383Z,23.49
2022-07-26T20:00:30.804Z,23.43
2022-07-26T20:03:03.731Z,23.52
2022-07-26T20:05:36.264Z,23.48
2022-07-26T20:08:08.662Z,23.48
2022-07-26T20:10:41.765Z,23.41
2022-07-26T20:13:14.197Z,23.48
2022-07-26T20:15:46.696Z,23.36
2022-07-26T20:18:21.351Z,23.36
2022-07-26T20:20:55.528Z,23.36
2022-07-26T20:23:28.210Z,23.38
2022-07-26T20:26:01.389Z,23.40
2022-07-26T20:28:33.859Z,23.46
2022-07-26T20:31:06.317Z,23.25
2022-07-26T20:33:38.755Z,23.18
2022-07-26T20:36:11.194Z,23.00
2022-07-26T20:38:48.232Z,22.85
2022-07-26T20:41:24.255Z,22.84
2022-07-26T20:43:57.532Z,22.88
2022-07-26T20:46:31.468Z,22.70
2022-07-26T20:49:04.029Z,22.74
2022-07-26T20:51:36.699Z,22.78
2022-07-26T20:54:09.587Z,22.80
2022-07-26T20:56:42.815Z,22.67
2022-07-26T20:59:15.605Z,22.71
2022-07-26T21:01:48.205Z,22.58
2022-07-26T21:04:20.707Z,22.53
2022-07-26T21:06:53.156Z,22.43
2022-07-26T21:09:26.387Z,22.47
2022-07-26T21:14:53.456Z,22.41
2022-07-26T21:17:34.558Z,22.07
2022-07-26T21:20:07.902Z,22.25
2022-07-26T21:22:40.312Z,22.15
2022-07-26T21:25:12.945Z,22.20
2022-07-26T21:27:46.044Z,22.14
2022-07-26T21:30:18.424Z,21.96
2022-07-26T21:32:50.806Z,21.81
2022-07-26T21:35:23.219Z,21.92
2022-07-26T21:37:55.616Z,21.91
2022-07-26T21:40:28.118Z,21.90
2022-07-26T21:43:01.324Z,21.88
2022-07-26T21:45:33.769Z,21.78
2022-07-26T21:48:06.776Z,21.76
2022-07-26T21:50:39.140Z,21.80
2022-07-26T21:53:11.500Z,21.78
2022-07-26T21:55:43.907Z,21.73
2022-07-26T21:58:16.947Z,21.53
2022-07-26T22:00:49.500Z,21.45
2022-07-26T22:03:21.943Z,21.49
2022-07-26T22:05:54.343Z,21.43
2022-07-26T22:08:27.031Z,21.49
2022-07-26T22:10:59.490Z,21.32
2022-07-26T22:13:32.561Z,21.36
2022-07-26T22:16:05.618Z,21.36
2022-07-26T22:18:38.048Z,21.32
2022-07-26T22:21:10.440Z,21.32
2022-07-26T22:23:42.910Z,21.12
2022-07-26T22:26:15.552Z,21.16
2022-07-26T22:28:48.604Z,21.15
2022-07-26T22:31:21.015Z,21.07
2022-07-26T22:33:53.470Z,21.03
2022-07-26T22:36:25.851Z,21.00
2022-07-26T22:38:58.231Z,20.96
2022-07-26T22:41:32.606Z,20.98
2022-07-26T22:44:07.005Z,20.88
2022-07-26T22:46:39.409Z,20.88
2022-07-26T22:49:12.383Z,20.85
2022-07-26T22:51:47.576Z,20.85
2022-07-26T22:54:19.975Z,20.80
2022-07-26T22:56:52.420Z,20.84
2022-07-26T22:59:25.499Z,20.79
2022-07-26T23:01:57.887Z,20.73
2022-07-26T23:04:30.292Z,20.74
2022-07-26T23:07:03.423Z,20.71
2022-07-26T23:09:36.982Z,20.65
2022-07-26T23:12:09.872Z,20.68
2022-07-26T23:14:42.913Z,20.65
2022-07-26T23:17:15.467Z,20.67
2022-07-26T23:19:47.953Z,20.60
2022-07-26T23:22:20.432Z,20.61
2022-07-26T23:24:52.830Z,20.53
2022-07-26T23:27:25.274Z,20.57
2022-07-26T23:29:58.366Z,20.52
2022-07-26T23:32:30.764Z,20.48
2022-07-26T23:35:03.637Z,20.42
2022-07-26T23:37:36.027Z,20.39
2022-07-26T23:40:10.060Z,20.37
2022-07-26T23:42:42.401Z,20.33
2022-07-26T23:45:15.436Z,20.34
2022-07-26T23:47:47.931Z,20.33
2022-07-26T23:50:20.409Z,20.33
2022-07-26T23:52:52.804Z,20.34
2022-07-26T23:55:25.212Z,20.30
2022-07-26T23:57:57.644Z,20.25
